Time;durP1;ratioP1;P1;durP2;ratioP2;P2;SDS_P1;SDS_P2;PMS_P1;PMS_P2;Temp;Humidity;BMP_temperature;BMP_pressure;BME280_temperature;BME280_humidity;BME280_pressure;Samples;Min_cycle;Max_cycle;Signal;HPM_P1;HPM_P2
2022/06/09 00:02:19;;;;;;;25.40;8.23;;;15.10;99.90;;;;;;5031605;28;20041;-72
2022/06/09 00:04:45;;;;;;;28.50;9.18;;;15.00;99.90;;;;;;5031607;28;20096;-72
2022/06/09 00:07:15;;;;;;;29.48;8.85;;;15.00;99.90;;;;;;5031747;28;20046;-71
2022/06/09 00:09:58;;;;;;;32.50;8.95;;;15.00;99.90;;;;;;5031487;28;20053;-72
2022/06/09 00:12:25;;;;;;;24.35;8.20;;;15.00;99.90;;;;;;5031832;28;20091;-72
2022/06/09 00:14:51;;;;;;;24.52;8.55;;;15.00;99.90;;;;;;5031767;28;20052;-72
2022/06/09 00:17:17;;;;;;;26.92;7.93;;;14.90;99.90;;;;;;5031304;28;20055;-71
2022/06/09 00:19:44;;;;;;;28.85;8.98;;;14.90;99.90;;;;;;5031493;28;20061;-72
2022/06/09 00:22:10;;;;;;;30.13;8.80;;;14.90;99.90;;;;;;5031677;28;20118;-71
2022/06/09 00:24:36;;;;;;;27.92;8.30;;;14.90;99.90;;;;;;5031398;28;20041;-72
2022/06/09 00:27:01;;;;;;;25.48;9.65;;;14.90;99.90;;;;;;5014866;28;20052;-72
2022/06/09 00:29:27;;;;;;;29.08;8.23;;;14.80;99.90;;;;;;5031202;28;20103;-71
2022/06/09 00:31:53;;;;;;;24.08;8.38;;;14.80;99.90;;;;;;5031354;28;20171;-72
2022/06/09 00:34:18;;;;;;;29.98;8.30;;;14.80;99.90;;;;;;5014827;28;20056;-72
2022/06/09 00:36:44;;;;;;;26.58;8.57;;;14.80;99.90;;;;;;5031312;28;20098;-72
2022/06/09 00:39:09;;;;;;;27.08;8.90;;;14.70;99.90;;;;;;5031148;28;20046;-71
2022/06/09 00:41:40;;;;;;;27.63;8.75;;;14.70;99.90;;;;;;5031803;28;20042;-72
2022/06/09 00:44:21;;;;;;;29.10;8.27;;;14.70;99.90;;;;;;5031495;28;20111;-72
2022/06/09 00:46:58;;;;;;;22.27;8.02;;;14.60;99.90;;;;;;5034243;28;20413;-71
2022/06/09 00:49:44;;;;;;;33.20;8.20;;;14.60;99.90;;;;;;5034595;28;20045;-71
2022/06/09 00:52:14;;;;;;;29.00;8.57;;;14.60;99.90;;;;;;5034138;28;20428;-72
2022/06/09 00:54:47;;;;;;;24.20;7.35;;;14.50;99.90;;;;;;5034692;28;20063;-72
2022/06/09 00:57:18;;;;;;;31.38;7.97;;;14.50;99.90;;;;;;5034442;28;20370;-71
2022/06/09 00:59:49;;;;;;;30.17;8.13;;;14.50;99.90;;;;;;5034571;28;20080;-72
2022/06/09 01:02:18;;;;;;;22.52;7.53;;;14.40;99.90;;;;;;5034815;28;20045;-72
2022/06/09 01:04:45;;;;;;;29.65;8.00;;;14.40;99.90;;;;;;5034471;28;20049;-72
2022/06/09 01:07:16;;;;;;;34.83;9.15;;;14.40;99.90;;;;;;5034608;28;20049;-71
2022/06/09 01:09:42;;;;;;;30.50;8.13;;;14.30;99.90;;;;;;5034576;28;20064;-72
2022/06/09 01:12:36;;;;;;;29.52;8.43;;;14.30;99.90;;;;;;5034550;28;20041;-72
2022/06/09 01:15:08;;;;;;;31.50;8.73;;;14.30;99.90;;;;;;5034291;28;20037;-72
2022/06/09 01:17:40;;;;;;;33.70;8.52;;;14.30;99.90;;;;;;5034356;28;20374;-71
2022/06/09 01:20:13;;;;;;;35.55;9.20;;;14.20;99.90;;;;;;5034194;28;20037;-72
2022/06/09 01:23:00;;;;;;;34.72;9.38;;;14.20;99.90;;;;;;5034173;28;20045;-72
2022/06/09 01:25:49;;;;;;;28.73;8.02;;;14.20;99.90;;;;;;5034340;28;20502;-72
2022/06/09 01:28:46;;;;;;;32.55;8.82;;;14.20;99.90;;;;;;5033966;28;20076;-71
2022/06/09 01:31:36;;;;;;;37.97;8.93;;;14.20;99.90;;;;;;5033950;28;20414;-72
2022/06/09 01:34:23;;;;;;;31.08;8.60;;;14.20;99.90;;;;;;5033893;28;20037;-72
2022/06/09 01:37:04;;;;;;;26.27;8.48;;;14.10;99.90;;;;;;5033874;28;20041;-71
2022/06/09 01:39:50;;;;;;;35.00;9.20;;;14.10;99.90;;;;;;5017333;28;20116;-72
2022/06/09 01:42:23;;;;;;;41.97;9.63;;;14.10;99.90;;;;;;5033819;28;20040;-72
2022/06/09 01:44:51;;;;;;;34.63;8.73;;;14.10;99.90;;;;;;5033667;28;20042;-71
2022/06/09 01:47:20;;;;;;;33.95;8.88;;;14.10;99.90;;;;;;5033614;28;20034;-71
2022/06/09 01:49:49;;;;;;;31.67;8.60;;;14.10;99.90;;;;;;5033793;28;20049;-72
2022/06/09 01:52:14;;;;;;;37.38;8.65;;;14.10;99.90;;;;;;5033550;28;20049;-72
2022/06/09 01:54:41;;;;;;;32.13;7.70;;;14.10;99.90;;;;;;5033507;28;20038;-71
2022/06/09 01:57:15;;;;;;;35.28;9.70;;;14.20;99.90;;;;;;5016541;28;20038;-72
2022/06/09 01:59:50;;;;;;;34.58;8.55;;;14.10;99.90;;;;;;5033475;28;20033;-71
2022/06/09 02:02:25;;;;;;;26.83;8.65;;;14.10;99.90;;;;;;5033384;28;20416;-72
2022/06/09 02:04:59;;;;;;;37.33;9.32;;;14.00;99.90;;;;;;5033387;28;20034;-72
2022/06/09 02:07:27;;;;;;;34.42;10.25;;;14.00;99.90;;;;;;5033235;28;20049;-71
2022/06/09 02:09:54;;;;;;;34.13;9.23;;;14.00;99.90;;;;;;5033329;28;20045;-72
2022/06/09 02:12:23;;;;;;;32.42;9.00;;;14.00;99.90;;;;;;5033197;28;20073;-72
2022/06/09 02:14:53;;;;;;;28.52;8.48;;;14.00;99.90;;;;;;5033165;28;20132;-72
2022/06/09 02:17:18;;;;;;;36.30;9.02;;;13.90;99.90;;;;;;5032995;28;20080;-72
2022/06/09 02:19:47;;;;;;;37.33;8.85;;;13.90;99.90;;;;;;5033031;28;20080;-71
2022/06/09 02:22:13;;;;;;;27.85;8.27;;;13.90;99.90;;;;;;5033243;28;20067;-72
2022/06/09 02:24:39;;;;;;;29.25;8.77;;;13.90;99.90;;;;;;5032904;28;20458;-72
2022/06/09 02:27:05;;;;;;;28.20;8.70;;;13.90;99.90;;;;;;5016335;28;20513;-72
2022/06/09 02:29:32;;;;;;;36.25;9.07;;;13.80;99.90;;;;;;5032923;28;20041;-71
2022/06/09 02:31:58;;;;;;;31.00;8.73;;;13.80;99.90;;;;;;5032807;28;20045;-72
2022/06/09 02:34:23;;;;;;;37.95;9.88;;;13.70;99.90;;;;;;5033001;28;20034;-72
2022/06/09 02:36:49;;;;;;;31.40;9.63;;;13.70;99.90;;;;;;5032722;28;20041;-72
2022/06/09 02:39:14;;;;;;;29.13;9.68;;;13.70;99.90;;;;;;5032639;28;20038;-71
2022/06/09 02:41:40;;;;;;;26.63;8.65;;;13.70;99.90;;;;;;5032585;28;20041;-72
2022/06/09 02:44:06;;;;;;;21.80;7.97;;;13.60;99.90;;;;;;5032575;28;20033;-72
2022/06/09 02:46:32;;;;;;;31.42;9.60;;;13.60;99.90;;;;;;5016048;28;20073;-72
2022/06/09 02:48:59;;;;;;;26.20;7.93;;;13.60;99.90;;;;;;5016270;28;20132;-72
2022/06/09 02:51:27;;;;;;;35.08;9.38;;;13.60;99.90;;;;;;5032373;28;20045;-72
2022/06/09 02:53:57;;;;;;;36.70;8.60;;;13.50;99.90;;;;;;5032385;28;20049;-72
2022/06/09 02:56:23;;;;;;;23.83;8.75;;;13.50;99.90;;;;;;5032350;28;20048;-72
2022/06/09 02:58:49;;;;;;;27.45;8.85;;;13.50;99.90;;;;;;5032138;28;20040;-71
2022/06/09 03:01:15;;;;;;;25.05;9.38;;;13.50;99.90;;;;;;5032296;28;20045;-72
2022/06/09 03:03:41;;;;;;;21.17;7.28;;;13.50;99.90;;;;;;5032247;28;20037;-72
2022/06/09 03:06:07;;;;;;;30.95;8.98;;;13.50;99.90;;;;;;5032225;28;20037;-72
2022/06/09 03:08:32;;;;;;;24.90;8.32;;;13.40;99.90;;;;;;5031372;28;20041;-71
2022/06/09 03:10:58;;;;;;;32.08;8.57;;;13.40;99.90;;;;;;5032135;28;20049;-71
2022/06/09 03:13:24;;;;;;;31.25;8.18;;;13.40;99.90;;;;;;5032077;28;20041;-72
2022/06/09 03:15:51;;;;;;;27.58;7.93;;;13.40;99.90;;;;;;5032057;28;20068;-71
2022/06/09 03:18:17;;;;;;;21.70;7.28;;;13.40;99.90;;;;;;5031990;28;20041;-72
2022/06/09 03:20:44;;;;;;;27.15;8.18;;;13.30;99.90;;;;;;5032021;28;20080;-72
2022/06/09 03:23:09;;;;;;;21.98;7.47;;;13.30;99.90;;;;;;5031993;28;20448;-71
2022/06/09 03:25:35;;;;;;;18.55;6.85;;;13.30;99.90;;;;;;5031948;28;20071;-72
2022/06/09 03:28:00;;;;;;;18.60;6.90;;;13.30;99.90;;;;;;5032087;28;20045;-71
2022/06/09 03:30:26;;;;;;;22.73;7.78;;;13.30;99.90;;;;;;5031809;28;20038;-71
2022/06/09 03:32:52;;;;;;;21.73;6.93;;;13.30;99.90;;;;;;5031865;28;20037;-72
2022/06/09 03:35:18;;;;;;;15.85;5.80;;;13.30;99.90;;;;;;5032131;28;20041;-72
2022/06/09 03:37:44;;;;;;;16.88;6.05;;;13.20;99.90;;;;;;5031764;28;20038;-71
2022/06/09 03:40:14;;;;;;;20.30;7.00;;;13.20;99.90;;;;;;5015396;28;20041;-71
2022/06/09 03:42:40;;;;;;;20.52;7.22;;;13.30;99.90;;;;;;5015437;28;20052;-72
2022/06/09 03:45:06;;;;;;;24.60;7.00;;;13.20;99.90;;;;;;5031771;28;20037;-72
2022/06/09 03:47:32;;;;;;;19.55;7.65;;;13.20;99.90;;;;;;5031714;28;20042;-71
2022/06/09 03:49:57;;;;;;;20.95;6.30;;;13.20;99.90;;;;;;5031617;28;20091;-72
2022/06/09 03:52:23;;;;;;;17.77;6.68;;;13.20;99.90;;;;;;5031676;28;20034;-72
2022/06/09 03:54:49;;;;;;;22.40;7.63;;;13.20;99.90;;;;;;5031921;28;20041;-72
2022/06/09 03:57:14;;;;;;;23.65;7.03;;;13.20;99.90;;;;;;5031442;28;20036;-71
2022/06/09 03:59:40;;;;;;;19.52;6.35;;;13.20;99.90;;;;;;5056502;22;20420;-68
2022/06/09 04:02:06;;;;;;;20.02;7.50;;;13.20;99.90;;;;;;5031881;28;20037;-69
2022/06/09 04:04:31;;;;;;;15.05;6.82;;;13.30;99.90;;;;;;5031679;28;20052;-69
2022/06/09 04:06:58;;;;;;;19.45;7.38;;;13.20;99.90;;;;;;5031837;28;20042;-69
2022/06/09 04:09:24;;;;;;;22.75;8.13;;;13.20;99.90;;;;;;5031503;28;20030;-69
2022/06/09 04:11:49;;;;;;;25.40;8.20;;;13.30;99.90;;;;;;5031497;28;20043;-69
2022/06/09 04:14:15;;;;;;;12.63;6.55;;;13.30;99.90;;;;;;5031461;28;20421;-69
2022/06/09 04:16:45;;;;;;;20.00;8.35;;;13.30;99.90;;;;;;5031538;28;20042;-69
2022/06/09 04:19:15;;;;;;;19.58;8.32;;;13.30;99.90;;;;;;5015703;28;20041;-69
2022/06/09 04:21:41;;;;;;;20.80;9.10;;;13.40;99.90;;;;;;5035542;28;20489;-69
2022/06/09 04:24:07;;;;;;;23.90;9.15;;;13.40;99.90;;;;;;5035266;28;20124;-69
2022/06/09 04:26:35;;;;;;;20.33;9.68;;;13.50;99.90;;;;;;5035183;28;20075;-69
2022/06/09 04:29:02;;;;;;;20.83;8.75;;;13.50;99.90;;;;;;5035076;28;20513;-69
2022/06/09 04:31:28;;;;;;;21.52;9.98;;;13.60;99.90;;;;;;5035059;28;20091;-69
2022/06/09 04:33:53;;;;;;;27.48;8.73;;;13.60;99.90;;;;;;5035039;28;20041;-69
2022/06/09 04:36:20;;;;;;;21.00;8.60;;;13.70;99.90;;;;;;5036175;28;20160;-69
2022/06/09 04:38:46;;;;;;;18.13;8.07;;;13.70;99.90;;;;;;5034882;28;20041;-69
2022/06/09 04:41:14;;;;;;;26.48;8.50;;;13.80;99.90;;;;;;5035116;28;20033;-69
2022/06/09 04:43:42;;;;;;;21.27;9.05;;;13.80;99.90;;;;;;5035128;28;20075;-69
2022/06/09 04:46:10;;;;;;;18.20;8.13;;;13.80;99.90;;;;;;5034824;28;20053;-69
2022/06/09 04:48:36;;;;;;;19.40;7.75;;;13.90;99.90;;;;;;5034673;28;20053;-69
2022/06/09 04:51:11;;;;;;;19.77;6.75;;;13.90;99.90;;;;;;5034752;28;20042;-69
2022/06/09 04:53:37;;;;;;;25.20;8.88;;;14.00;99.90;;;;;;5034679;28;20133;-69
2022/06/09 04:56:04;;;;;;;16.63;7.60;;;14.00;99.90;;;;;;5034651;28;20041;-69
2022/06/09 04:58:29;;;;;;;22.30;8.45;;;14.00;99.90;;;;;;5034565;28;20038;-69
2022/06/09 05:00:55;;;;;;;17.88;9.02;;;14.10;99.90;;;;;;5034553;28;20052;-69
2022/06/09 05:03:21;;;;;;;17.55;9.27;;;14.10;99.90;;;;;;5034422;28;20045;-69
2022/06/09 05:05:48;;;;;;;24.33;10.20;;;14.10;99.90;;;;;;5034440;28;20037;-69
2022/06/09 05:08:15;;;;;;;16.42;10.18;;;14.10;99.90;;;;;;5034683;28;20045;-69
2022/06/09 05:10:43;;;;;;;18.13;10.02;;;14.10;99.90;;;;;;5034438;28;20050;-69
2022/06/09 05:13:10;;;;;;;22.13;11.70;;;14.10;99.90;;;;;;5034600;28;20029;-69
2022/06/09 05:15:47;;;;;;;22.13;11.63;;;14.20;99.90;;;;;;5034306;28;20042;-68
2022/06/09 05:18:13;;;;;;;17.40;11.75;;;14.20;99.90;;;;;;5018104;28;20072;-68
2022/06/09 05:20:38;;;;;;;22.15;13.65;;;14.20;99.90;;;;;;5036117;28;20084;-68
2022/06/09 05:23:04;;;;;;;21.08;13.55;;;14.30;99.90;;;;;;5017718;28;20071;-68
2022/06/09 05:25:29;;;;;;;24.42;14.30;;;14.20;99.90;;;;;;5034189;28;20045;-68
2022/06/09 05:27:55;;;;;;;25.00;15.85;;;14.20;99.90;;;;;;5034268;28;20045;-68
2022/06/09 05:30:24;;;;;;;26.77;17.05;;;14.30;99.90;;;;;;5033680;28;20044;-68
2022/06/09 05:32:50;;;;;;;21.52;16.52;;;14.30;99.90;;;;;;5034810;28;20038;-68
2022/06/09 05:35:17;;;;;;;26.30;19.02;;;14.30;99.90;;;;;;5034158;28;20485;-68
2022/06/09 05:45:59;;;;;;;23.15;17.27;;;14.20;99.90;;;;;;5033860;28;20049;-69
2022/06/09 05:48:25;;;;;;;25.13;18.50;;;14.20;99.90;;;;;;5033630;28;20045;-69
2022/06/09 05:50:52;;;;;;;23.33;18.77;;;14.20;99.90;;;;;;5033583;28;20052;-69
2022/06/09 05:53:17;;;;;;;23.55;17.65;;;14.20;99.90;;;;;;5033605;28;20087;-69
2022/06/09 05:55:43;;;;;;;22.92;17.67;;;14.30;99.90;;;;;;5033805;28;20037;-69
2022/06/09 05:58:09;;;;;;;26.55;18.83;;;14.30;99.90;;;;;;5033350;28;20481;-69
2022/06/09 06:00:35;;;;;;;26.88;18.45;;;14.30;99.90;;;;;;5016968;28;20045;-69
2022/06/09 06:03:01;;;;;;;28.70;20.27;;;14.30;99.90;;;;;;5033364;28;20045;-70
2022/06/09 06:08:10;;;;;;;27.13;19.88;;;14.30;99.90;;;;;;5034650;28;20112;-69
2022/06/09 06:10:36;;;;;;;24.65;20.83;;;14.30;99.90;;;;;;5034454;28;20507;-69
2022/06/09 06:13:01;;;;;;;27.73;19.48;;;14.40;99.90;;;;;;5033423;28;20091;-69
2022/06/09 06:15:27;;;;;;;28.05;20.58;;;14.40;99.90;;;;;;5033332;28;20041;-69
2022/06/09 06:17:54;;;;;;;30.05;20.85;;;14.40;99.90;;;;;;5033037;28;20049;-69
2022/06/09 06:20:20;;;;;;;32.65;21.73;;;14.50;99.90;;;;;;5016568;28;20073;-69
2022/06/09 06:22:45;;;;;;;30.17;21.73;;;14.50;99.90;;;;;;5032976;28;20416;-69
2022/06/09 06:25:11;;;;;;;29.05;21.30;;;14.50;99.90;;;;;;5032964;28;20120;-69
2022/06/09 06:27:37;;;;;;;28.30;20.92;;;14.60;99.90;;;;;;5032842;28;20050;-69
2022/06/09 06:30:02;;;;;;;31.95;21.63;;;14.60;99.90;;;;;;5032742;28;20077;-69
2022/06/09 06:32:28;;;;;;;30.48;21.20;;;14.60;99.90;;;;;;5032797;28;20045;-69
2022/06/09 06:34:54;;;;;;;26.10;21.05;;;14.70;99.90;;;;;;5033088;28;20073;-69
2022/06/09 06:37:19;;;;;;;27.25;20.98;;;14.80;99.90;;;;;;5033202;28;20045;-69
2022/06/09 06:39:45;;;;;;;29.65;20.02;;;14.80;99.90;;;;;;5016424;28;20037;-69
2022/06/09 06:42:10;;;;;;;22.45;18.80;;;14.90;99.90;;;;;;5016137;28;20037;-69
2022/06/09 06:44:36;;;;;;;26.77;19.60;;;15.00;99.90;;;;;;5032846;28;20048;-69
2022/06/09 06:47:02;;;;;;;23.30;17.70;;;15.00;99.90;;;;;;5032563;28;20493;-69
2022/06/09 06:49:27;;;;;;;23.60;18.95;;;15.20;99.90;;;;;;5032431;28;20048;-69
2022/06/09 06:51:53;;;;;;;23.20;18.45;;;15.30;99.90;;;;;;5033697;28;20049;-69
2022/06/09 06:54:18;;;;;;;20.80;15.63;;;15.40;99.90;;;;;;5033930;28;20030;-69
2022/06/09 06:56:44;;;;;;;18.17;15.88;;;15.50;99.90;;;;;;5016202;28;20096;-68
2022/06/09 06:59:10;;;;;;;17.63;15.18;;;15.50;99.90;;;;;;5032097;28;20037;-68
2022/06/09 07:01:36;;;;;;;15.77;13.82;;;15.60;99.90;;;;;;5032342;28;20043;-69
2022/06/09 07:04:01;;;;;;;15.38;13.73;;;15.60;99.90;;;;;;5015806;28;20060;-69
2022/06/09 07:06:27;;;;;;;19.52;13.38;;;15.70;99.90;;;;;;5015787;28;20045;-69
2022/06/09 07:08:53;;;;;;;15.75;13.10;;;15.80;99.90;;;;;;5032153;28;20041;-70
2022/06/09 07:11:18;;;;;;;15.95;12.95;;;15.90;99.90;;;;;;5032099;28;20046;-70
2022/06/09 07:13:45;;;;;;;15.40;11.63;;;15.90;99.90;;;;;;5033614;28;20084;-70
2022/06/09 07:16:12;;;;;;;13.95;11.95;;;15.90;99.90;;;;;;5032070;28;20072;-70
2022/06/09 07:18:38;;;;;;;14.73;10.98;;;16.00;99.90;;;;;;5032024;28;20508;-70
2022/06/09 07:21:05;;;;;;;11.75;9.32;;;16.10;99.90;;;;;;5032046;28;20476;-70
2022/06/09 07:23:31;;;;;;;14.95;9.88;;;16.10;99.90;;;;;;5031990;28;20084;-70
2022/06/09 07:25:58;;;;;;;11.10;8.20;;;16.10;99.90;;;;;;5031944;28;20047;-70
2022/06/09 07:28:24;;;;;;;15.77;8.65;;;16.20;99.90;;;;;;5031904;28;20045;-70
2022/06/09 07:30:55;;;;;;;12.60;7.60;;;16.30;99.90;;;;;;5031799;28;20501;-69
2022/06/09 07:33:21;;;;;;;11.27;7.03;;;16.40;99.90;;;;;;5031925;28;20493;-69
2022/06/09 07:35:51;;;;;;;9.88;6.40;;;16.40;99.90;;;;;;5031858;28;20037;-69
2022/06/09 07:38:18;;;;;;;11.23;6.35;;;16.50;99.90;;;;;;5015685;28;20100;-69
2022/06/09 07:40:43;;;;;;;11.02;6.38;;;16.60;99.90;;;;;;5031831;28;20498;-69
2022/06/09 07:43:10;;;;;;;10.73;5.40;;;16.70;99.90;;;;;;5015390;28;20048;-69
2022/06/09 07:45:37;;;;;;;8.45;5.60;;;16.90;99.90;;;;;;5032036;28;20094;-69
2022/06/09 07:48:04;;;;;;;10.95;5.03;;;17.00;99.90;;;;;;5031901;28;20076;-69
2022/06/09 07:50:31;;;;;;;11.60;4.90;;;17.20;99.90;;;;;;5015455;28;20128;-69
2022/06/09 07:52:57;;;;;;;10.00;5.03;;;17.20;99.90;;;;;;5032019;28;20053;-69
2022/06/09 07:55:24;;;;;;;8.23;4.65;;;17.10;99.90;;;;;;5034520;28;20038;-69
2022/06/09 07:57:51;;;;;;;10.15;4.25;;;17.10;99.90;;;;;;5035555;28;20049;-69
2022/06/09 08:00:17;;;;;;;9.80;4.38;;;17.30;99.90;;;;;;5037291;28;20068;-69
2022/06/09 08:02:43;;;;;;;6.13;3.65;;;17.50;99.90;;;;;;5035682;28;20045;-69
2022/06/09 08:05:10;;;;;;;8.45;4.07;;;17.50;99.90;;;;;;5035707;28;20067;-69
2022/06/09 08:07:35;;;;;;;6.38;3.10;;;17.60;99.90;;;;;;5035737;28;20048;-69
2022/06/09 08:10:02;;;;;;;7.50;2.83;;;17.50;99.90;;;;;;5035448;28;20124;-70
2022/06/09 08:12:28;;;;;;;8.93;2.50;;;17.60;99.90;;;;;;5035746;28;20049;-69
2022/06/09 08:14:54;;;;;;;6.68;2.58;;;17.60;99.90;;;;;;5035668;28;20413;-69
2022/06/09 08:17:19;;;;;;;6.38;2.80;;;17.80;99.90;;;;;;5035539;28;20073;-69
2022/06/09 08:19:46;;;;;;;8.35;2.60;;;17.80;99.90;;;;;;5035555;28;20068;-69
2022/06/09 08:22:12;;;;;;;6.45;2.30;;;17.70;99.90;;;;;;5035691;28;20468;-69
2022/06/09 08:24:38;;;;;;;5.00;1.88;;;17.80;99.90;;;;;;5035458;28;20061;-69
2022/06/09 08:27:04;;;;;;;5.72;2.03;;;17.90;99.90;;;;;;5035231;28;20076;-70
2022/06/09 08:29:29;;;;;;;7.90;1.42;;;18.10;99.90;;;;;;5036453;28;20080;-70
2022/06/09 08:31:55;;;;;;;7.15;1.58;;;18.20;99.90;;;;;;5036252;28;20144;-70
2022/06/09 08:34:20;;;;;;;9.43;2.08;;;18.40;99.90;;;;;;5035074;28;20045;-70
2022/06/09 08:36:46;;;;;;;4.60;1.50;;;18.60;99.90;;;;;;5035045;28;20045;-70
2022/06/09 08:39:12;;;;;;;3.88;1.20;;;18.70;99.90;;;;;;5035312;28;20025;-70
2022/06/09 08:41:42;;;;;;;6.13;1.38;;;18.70;99.90;;;;;;5034954;28;20045;-69
2022/06/09 08:44:24;;;;;;;6.63;1.80;;;18.80;99.90;;;;;;5035192;28;20053;-69
2022/06/09 08:46:49;;;;;;;5.65;1.40;;;18.60;99.90;;;;;;5034848;28;20056;-69
2022/06/09 08:49:56;;;;;;;5.13;1.40;;;18.40;99.90;;;;;;5034729;28;20049;-69
2022/06/09 08:52:47;;;;;;;6.97;1.60;;;18.30;99.90;;;;;;5018297;28;20387;-70
2022/06/09 08:55:18;;;;;;;4.75;1.20;;;18.40;99.90;;;;;;5035090;28;20037;-69
2022/06/09 08:57:45;;;;;;;7.95;1.50;;;18.70;99.90;;;;;;5017945;28;20041;-69
2022/06/09 09:00:15;;;;;;;4.80;1.30;;;18.90;99.90;;;;;;5034620;28;20524;-69
2022/06/09 09:02:48;;;;;;;5.95;1.30;;;19.10;99.90;;;;;;5034608;28;20081;-70
2022/06/09 09:05:18;;;;;;;7.15;1.77;;;19.20;99.90;;;;;;5034363;28;20049;-69
2022/06/09 09:07:47;;;;;;;8.65;1.50;;;19.10;99.90;;;;;;5035096;28;20045;-69
2022/06/09 09:10:25;;;;;;;4.50;1.02;;;19.20;99.90;;;;;;5034393;28;20045;-69
2022/06/09 09:13:19;;;;;;;3.47;0.98;;;19.40;99.90;;;;;;5034413;28;20116;-69
2022/06/09 09:15:51;;;;;;;7.93;1.60;;;19.50;99.90;;;;;;5017854;28;20063;-69
2022/06/09 09:18:28;;;;;;;6.93;1.20;;;19.70;99.90;;;;;;5034395;28;20053;-68
2022/06/09 09:21:44;;;;;;;5.82;1.02;;;19.90;99.90;;;;;;5034297;28;20120;-69
2022/06/09 09:24:25;;;;;;;4.68;1.10;;;19.90;99.90;;;;;;4991257;28;20049;-70
2022/06/09 09:27:05;;;;;;;7.10;1.50;;;19.80;99.90;;;;;;5034180;28;20057;-70
2022/06/09 09:29:45;;;;;;;6.30;1.88;;;19.80;99.90;;;;;;5034017;28;20045;-69
2022/06/09 09:32:16;;;;;;;7.95;1.50;;;20.00;99.90;;;;;;5034082;28;20046;-69
2022/06/09 09:34:44;;;;;;;6.88;1.20;;;20.10;99.90;;;;;;5034393;28;20037;-69
2022/06/09 09:37:31;;;;;;;4.68;1.02;;;20.10;99.90;;;;;;5035174;28;20048;-69
2022/06/09 09:40:19;;;;;;;3.75;1.10;;;20.20;99.90;;;;;;5033943;28;20042;-69
2022/06/09 09:42:45;;;;;;;8.18;1.02;;;20.20;99.90;;;;;;5017304;28;20119;-69
2022/06/09 09:45:11;;;;;;;8.70;1.85;;;20.10;99.90;;;;;;5035290;28;20079;-69
2022/06/09 09:47:48;;;;;;;4.07;1.10;;;20.10;99.90;;;;;;5034715;28;20410;-70
2022/06/09 09:50:37;;;;;;;6.97;1.08;;;20.20;99.90;;;;;;5017069;28;20076;-70
2022/06/09 09:53:29;;;;;;;4.30;1.00;;;20.30;99.90;;;;;;5033926;28;20397;-69
2022/06/09 09:56:24;;;;;;;4.78;1.10;;;20.40;99.90;;;;;;5033830;28;20045;-69
2022/06/09 09:58:57;;;;;;;8.18;1.58;;;20.30;99.90;;;;;;5033849;28;20050;-69
2022/06/09 10:01:23;;;;;;;7.30;1.40;;;20.40;99.90;;;;;;5033412;28;20068;-69
2022/06/09 10:09:45;;;;;;;7.60;1.60;;;20.70;99.90;;;;;;5033175;28;20053;-69
2022/06/09 10:12:16;;;;;;;7.38;1.55;;;20.50;99.90;;;;;;5033481;28;20441;-69
2022/06/09 10:15:02;;;;;;;7.72;1.55;;;20.20;99.90;;;;;;5016970;28;20045;-70
2022/06/09 10:17:41;;;;;;;4.65;1.25;;;20.10;99.90;;;;;;5032080;28;20045;-70
2022/06/09 10:20:28;;;;;;;7.90;1.73;;;20.30;99.90;;;;;;5016646;28;20087;-70
2022/06/09 10:23:09;;;;;;;6.00;0.95;;;20.20;99.90;;;;;;5033247;28;20494;-70
2022/06/09 10:25:59;;;;;;;6.65;1.40;;;20.20;99.90;;;;;;5033288;28;20116;-70
2022/06/09 10:29:02;;;;;;;7.10;1.02;;;20.30;99.90;;;;;;5032852;28;20044;-70
2022/06/09 10:31:53;;;;;;;7.18;1.00;;;20.50;99.90;;;;;;5016322;28;20136;-70
2022/06/09 10:34:43;;;;;;;7.20;1.30;;;20.80;99.90;;;;;;5032856;28;20037;-70
2022/06/09 10:37:09;;;;;;;7.82;1.52;;;21.10;99.90;;;;;;5032809;28;20041;-70
2022/06/09 10:39:44;;;;;;;3.83;0.82;;;21.30;99.90;;;;;;5032905;28;20037;-70
2022/06/09 10:42:28;;;;;;;5.07;0.82;;;21.20;99.90;;;;;;5016216;28;20129;-70
2022/06/09 10:45:34;;;;;;;4.88;1.25;;;20.90;99.90;;;;;;5032799;28;20038;-70
2022/06/09 10:57:16;;;;;;;4.70;1.10;;;20.70;99.90;;;;;;5032460;28;20046;-70
2022/06/09 11:00:05;;;;;;;7.07;1.15;;;21.00;99.90;;;;;;5015781;28;20087;-70
2022/06/09 11:02:33;;;;;;;5.22;0.98;;;21.30;99.90;;;;;;5016638;28;20445;-70
2022/06/09 11:04:59;;;;;;;8.90;1.10;;;21.40;99.90;;;;;;5032360;28;20041;-70
2022/06/09 11:07:50;;;;;;;4.47;1.00;;;21.60;99.90;;;;;;5015803;28;20034;-70
2022/06/09 11:10:31;;;;;;;3.05;0.77;;;21.80;99.90;;;;;;5032124;28;20050;-70
2022/06/09 11:13:42;;;;;;;4.88;1.00;;;21.80;99.90;;;;;;5032465;28;20037;-71
2022/06/09 11:16:50;;;;;;;6.38;0.90;;;21.90;99.90;;;;;;5032164;28;20042;-71
2022/06/09 11:19:44;;;;;;;5.38;1.10;;;22.00;99.90;;;;;;5032102;28;20042;-71
2022/06/09 11:22:47;;;;;;;2.58;0.60;;;22.10;99.90;;;;;;5032372;28;20039;-71
2022/06/09 11:25:35;;;;;;;;;;;22.30;99.90;;;;;;5032431;28;20045;-71
2022/06/09 11:28:28;;;;;;;3.30;0.88;;;22.30;97.50;;;;;;5031876;28;19917;-71
2022/06/09 11:31:13;;;;;;;4.90;0.82;;;22.50;99.90;;;;;;5031748;28;20060;-71
2022/06/09 11:33:41;;;;;;;4.82;0.77;;;22.60;99.90;;;;;;5032245;28;20053;-71
2022/06/09 11:36:23;;;;;;;5.05;1.08;;;22.60;99.90;;;;;;5031855;28;20124;-71
2022/06/09 11:39:14;;;;;;;4.13;0.77;;;22.50;99.90;;;;;;5015446;28;20041;-71
2022/06/09 11:42:07;;;;;;;6.65;1.17;;;22.60;99.90;;;;;;5015480;28;20132;-71
2022/06/09 11:44:36;;;;;;;5.35;1.10;;;22.60;99.90;;;;;;5015410;28;20159;-71
2022/06/09 11:47:25;;;;;;;5.15;0.88;;;22.80;99.90;;;;;;5031761;28;20490;-71
2022/06/09 11:49:54;;;;;;;6.18;1.20;;;22.80;99.90;;;;;;5031159;28;20065;-71
2022/06/09 11:52:29;;;;;;;4.63;0.70;;;23.00;99.90;;;;;;5031677;28;20044;-71
2022/06/09 11:54:57;;;;;;;2.60;0.50;;;23.10;98.70;;;;;;5031908;28;20075;-71
2022/06/09 11:57:26;;;;;;;4.90;1.00;;;23.10;97.30;;;;;;5031898;28;20398;-71
2022/06/09 12:00:27;;;;;;;4.43;1.13;;;23.00;91.70;;;;;;5031427;28;20038;-70
2022/06/09 12:03:13;;;;;;;3.28;0.70;;;22.80;93.90;;;;;;4939967;28;20054;-69
2022/06/09 12:05:55;;;;;;;4.63;1.05;;;22.40;96.90;;;;;;4956145;28;20050;-69
2022/06/09 12:09:02;;;;;;;6.93;0.90;;;22.00;97.00;;;;;;4956168;28;20043;-71
2022/06/09 12:11:53;;;;;;;6.65;0.90;;;21.80;97.70;;;;;;4943119;28;20059;-71
2022/06/09 12:14:30;;;;;;;7.03;0.95;;;21.90;99.90;;;;;;4955882;28;20053;-70
2022/06/09 12:17:05;;;;;;;5.13;0.90;;;22.10;99.90;;;;;;4955870;28;20529;-70
2022/06/09 12:19:35;;;;;;;4.90;1.30;;;22.30;99.90;;;;;;4955807;28;20130;-70
2022/06/09 12:22:38;;;;;;;5.50;0.98;;;22.30;96.50;;;;;;4955768;28;20038;-70
2022/06/09 12:25:10;;;;;;;11.00;1.05;;;22.30;96.10;;;;;;4956055;28;20538;-70
2022/06/09 12:27:42;;;;;;;8.60;1.15;;;22.40;95.30;;;;;;4955658;28;20061;-70
2022/06/09 12:30:37;;;;;;;8.00;1.02;;;22.30;99.10;;;;;;4955911;28;20049;-70
2022/06/09 12:33:15;;;;;;;6.18;1.17;;;22.40;98.30;;;;;;4955739;28;20503;-71
2022/06/09 12:36:04;;;;;;;5.85;1.33;;;22.40;99.90;;;;;;4955930;28;20039;-71
2022/06/09 12:38:55;;;;;;;5.35;1.00;;;22.60;99.90;;;;;;4977832;28;20156;-71
2022/06/09 12:41:33;;;;;;;4.45;1.00;;;22.80;95.60;;;;;;5034001;28;20068;-71
2022/06/09 12:44:07;;;;;;;5.97;1.20;;;22.80;99.90;;;;;;5034889;28;20046;-70
2022/06/09 12:46:33;;;;;;;4.63;1.10;;;22.80;96.30;;;;;;5034887;28;20045;-70
2022/06/09 12:48:59;;;;;;;3.58;0.93;;;22.80;98.10;;;;;;5035020;28;20063;-70
2022/06/09 12:51:27;;;;;;;7.40;1.42;;;22.50;99.80;;;;;;5034991;28;20490;-70
2022/06/09 12:53:56;;;;;;;6.70;1.20;;;22.50;97.10;;;;;;5034808;28;20030;-70
2022/06/09 12:56:34;;;;;;;6.25;1.25;;;22.30;98.30;;;;;;5035244;28;20076;-71
2022/06/09 12:59:14;;;;;;;7.80;1.63;;;22.20;99.90;;;;;;5034793;28;20438;-70
2022/06/09 13:01:51;;;;;;;5.72;1.00;;;22.20;98.60;;;;;;5035743;28;20131;-70
2022/06/09 13:04:18;;;;;;;4.57;0.88;;;22.20;96.40;;;;;;5034598;28;20053;-71
2022/06/09 13:06:47;;;;;;;5.75;1.15;;;22.00;96.00;;;;;;5018253;28;20179;-71
2022/06/09 13:09:18;;;;;;;6.68;1.00;;;21.80;96.30;;;;;;5034564;28;20041;-69
2022/06/09 13:14:32;;;;;;;4.85;1.30;;;22.00;96.40;;;;;;5034636;28;20112;-70
2022/06/09 13:17:13;;;;;;;5.88;1.25;;;22.20;95.70;;;;;;5034250;28;20034;-69
2022/06/09 13:19:40;;;;;;;5.22;0.80;;;22.40;92.40;;;;;;5017765;28;20447;-69
2022/06/09 13:22:12;;;;;;;6.40;1.10;;;22.60;92.20;;;;;;5034253;28;20128;-69
2022/06/09 13:24:41;;;;;;;5.93;1.08;;;22.80;92.80;;;;;;5034225;28;20044;-69
2022/06/09 13:27:15;;;;;;;7.13;1.33;;;22.80;90.70;;;;;;5034386;28;20049;-69
2022/06/09 13:29:55;;;;;;;6.15;1.20;;;22.80;87.20;;;;;;5034298;28;20405;-69
2022/06/09 13:32:27;;;;;;;5.93;1.10;;;22.80;87.80;;;;;;5034348;28;20136;-70